Time;durP1;ratioP1;P1;durP2;ratioP2;P2;SDS_P1;SDS_P2;PMS_P1;PMS_P2;Temp;Humidity;BMP_temperature;BMP_pressure;BME280_temperature;BME280_humidity;BME280_pressure;Samples;Min_cycle;Max_cycle;Signal;HPM_P1;HPM_P2
2022/04/10 00:00:45;;;;;;;4.68;1.05;;;21.90;99.90;;;;;;5089984;28;20215;-80
2022/04/10 00:03:16;;;;;;;7.72;1.67;;;22.00;99.90;;;;;;5088817;28;20191;-80
2022/04/10 00:05:47;;;;;;;6.10;1.10;;;22.00;99.90;;;;;;5087758;28;20533;-81
2022/04/10 00:08:17;;;;;;;3.65;1.00;;;22.00;99.90;;;;;;5090383;28;20199;-81
2022/04/10 00:10:50;;;;;;;4.00;1.00;;;22.10;99.90;;;;;;5089382;28;20754;-80
2022/04/10 00:13:20;;;;;;;4.47;0.95;;;22.10;99.90;;;;;;5088450;28;20245;-80
2022/04/10 00:15:53;;;;;;;5.88;1.00;;;22.10;99.90;;;;;;5089609;28;20214;-81
2022/04/10 00:18:23;;;;;;;3.40;0.82;;;22.10;99.90;;;;;;5090053;28;20199;-81
2022/04/10 00:20:54;;;;;;;3.63;0.93;;;22.10;99.90;;;;;;5089055;28;20260;-81
2022/04/10 00:23:24;;;;;;;4.25;1.10;;;22.10;99.90;;;;;;5086447;28;20222;-80
2022/04/10 00:25:55;;;;;;;3.90;0.98;;;22.10;99.90;;;;;;5088417;28;20199;-81
2022/04/10 00:28:26;;;;;;;4.53;0.98;;;22.10;99.90;;;;;;5089652;28;20615;-81
2022/04/10 00:30:58;;;;;;;3.85;0.90;;;22.10;99.90;;;;;;5087556;28;20195;-80
2022/04/10 00:33:29;;;;;;;4.13;1.00;;;22.10;99.90;;;;;;5088426;28;20187;-79
2022/04/10 00:35:59;;;;;;;3.55;0.98;;;22.10;99.90;;;;;;5089277;28;20245;-79
2022/04/10 00:38:30;;;;;;;2.55;0.80;;;22.10;99.90;;;;;;5088893;28;20262;-79
2022/04/10 00:41:01;;;;;;;4.82;1.02;;;22.00;99.90;;;;;;5087662;28;20198;-80
2022/04/10 00:43:34;;;;;;;5.97;1.20;;;22.00;99.90;;;;;;5089028;28;20207;-80
2022/04/10 00:46:06;;;;;;;4.68;1.40;;;22.10;99.90;;;;;;5087765;28;20206;-79
2022/04/10 00:48:37;;;;;;;3.33;1.00;;;22.10;99.90;;;;;;5089100;28;20642;-79
2022/04/10 00:53:55;;;;;;;4.72;1.20;;;22.10;99.90;;;;;;5088020;28;20685;-80
2022/04/10 00:56:25;;;;;;;4.70;1.05;;;22.10;99.90;;;;;;5089247;28;20199;-80
2022/04/10 00:58:56;;;;;;;4.32;1.10;;;22.00;99.90;;;;;;5078436;28;20196;-80
2022/04/10 01:01:28;;;;;;;4.13;0.90;;;22.00;99.90;;;;;;5081918;28;20235;-79
2022/04/10 01:03:59;;;;;;;5.93;1.35;;;22.00;99.90;;;;;;5088583;28;20249;-80
2022/04/10 01:06:31;;;;;;;6.40;1.13;;;22.00;99.90;;;;;;5087274;28;20199;-79
2022/04/10 01:09:01;;;;;;;9.50;1.48;;;22.00;99.90;;;;;;5087993;28;20500;-77
2022/04/10 01:11:32;;;;;;;3.65;1.23;;;22.00;99.90;;;;;;5088325;28;20211;-82
2022/04/10 01:14:04;;;;;;;4.00;1.20;;;22.10;99.90;;;;;;5088767;28;20270;-81
2022/04/10 01:16:38;;;;;;;4.05;1.25;;;22.10;99.90;;;;;;5088342;28;20195;-81
2022/04/10 01:19:09;;;;;;;3.30;1.15;;;22.20;99.90;;;;;;5089320;28;20610;-81
2022/04/10 01:21:44;;;;;;;4.05;1.20;;;22.30;99.90;;;;;;5086892;28;20219;-78
2022/04/10 01:24:17;;;;;;;4.28;1.30;;;22.50;99.90;;;;;;5081632;28;20552;-78
2022/04/10 01:26:48;;;;;;;3.03;1.10;;;22.60;99.90;;;;;;5069361;28;20196;-77
2022/04/10 01:29:18;;;;;;;4.25;1.13;;;22.70;99.90;;;;;;5072054;28;20199;-77
2022/04/10 01:31:50;;;;;;;5.47;1.38;;;22.80;99.90;;;;;;5089701;28;20207;-77
2022/04/10 01:34:20;;;;;;;4.13;1.10;;;22.90;99.90;;;;;;5089704;28;20195;-77
2022/04/10 01:36:51;;;;;;;7.18;1.52;;;23.00;99.90;;;;;;5089236;28;20240;-78
2022/04/10 01:39:26;;;;;;;5.55;1.15;;;23.00;99.90;;;;;;5088776;28;20235;-77
2022/04/10 01:41:57;;;;;;;4.65;0.90;;;23.00;99.90;;;;;;5069727;28;20223;-77
2022/04/10 01:44:27;;;;;;;5.55;1.20;;;23.00;99.90;;;;;;5089097;28;20207;-81
2022/04/10 01:46:58;;;;;;;4.03;1.02;;;23.10;99.90;;;;;;5091497;28;20211;-81
2022/04/10 01:49:29;;;;;;;3.92;0.90;;;23.10;99.90;;;;;;5092375;28;20543;-80
2022/04/10 01:52:00;;;;;;;5.80;1.23;;;23.10;99.90;;;;;;5092459;28;20203;-81
2022/04/10 01:54:32;;;;;;;3.90;1.17;;;23.10;99.90;;;;;;5092476;28;20203;-81
2022/04/10 01:57:05;;;;;;;4.55;1.40;;;23.10;99.90;;;;;;5091157;28;20199;-79
2022/04/10 01:59:35;;;;;;;5.13;1.48;;;23.00;99.90;;;;;;5091518;28;20211;-80
2022/04/10 02:02:06;;;;;;;4.68;1.25;;;23.10;99.90;;;;;;5081682;28;20219;-81
2022/04/10 02:04:37;;;;;;;3.70;1.15;;;23.00;99.90;;;;;;5084060;28;20203;-81
2022/04/10 02:07:08;;;;;;;3.28;1.10;;;23.00;99.90;;;;;;5090929;28;20570;-81
2022/04/10 02:09:40;;;;;;;4.68;1.20;;;23.00;99.90;;;;;;5086415;28;20194;-79
2022/04/10 02:12:12;;;;;;;5.18;1.30;;;22.90;99.90;;;;;;5091633;28;20203;-79
2022/04/10 02:14:43;;;;;;;7.65;1.45;;;22.90;99.90;;;;;;5092330;28;20203;-79
2022/04/10 02:17:13;;;;;;;5.18;1.30;;;22.90;99.90;;;;;;5092164;28;20196;-79
2022/04/10 02:19:44;;;;;;;4.35;1.20;;;22.90;99.90;;;;;;5092037;28;20260;-79
2022/04/10 02:22:14;;;;;;;4.90;1.17;;;23.00;99.90;;;;;;5091711;28;20266;-78
2022/04/10 02:24:47;;;;;;;5.47;1.10;;;23.10;99.90;;;;;;5091283;28;20490;-79
2022/04/10 02:27:17;;;;;;;5.93;1.30;;;23.30;99.90;;;;;;5091957;28;20252;-79
2022/04/10 02:29:48;;;;;;;3.60;1.05;;;23.40;99.90;;;;;;5092147;28;20264;-79
2022/04/10 02:32:19;;;;;;;6.43;1.45;;;23.50;99.90;;;;;;5092123;28;20199;-79
2022/04/10 02:34:49;;;;;;;4.95;1.48;;;23.50;99.90;;;;;;5091930;28;20204;-79
2022/04/10 02:37:20;;;;;;;7.70;1.40;;;23.50;99.90;;;;;;5091654;28;20200;-78
2022/04/10 02:39:52;;;;;;;5.20;1.33;;;23.60;99.90;;;;;;5091875;28;20205;-79
2022/04/10 02:42:23;;;;;;;4.63;1.00;;;23.70;99.90;;;;;;5075919;28;20692;-79
2022/04/10 02:44:53;;;;;;;4.40;1.30;;;23.70;99.90;;;;;;5091629;28;20199;-79
2022/04/10 02:47:24;;;;;;;4.50;1.17;;;23.70;99.90;;;;;;5091318;28;20202;-79
2022/04/10 02:49:55;;;;;;;3.03;1.08;;;23.80;99.90;;;;;;5091311;28;20705;-79
2022/04/10 02:52:25;;;;;;;6.97;1.42;;;23.90;99.90;;;;;;5091369;28;20207;-79
2022/04/10 02:54:58;;;;;;;5.32;1.17;;;24.00;99.90;;;;;;5091153;28;20199;-79
2022/04/10 02:57:28;;;;;;;5.88;1.10;;;24.00;99.90;;;;;;5091156;28;20244;-79
2022/04/10 02:59:59;;;;;;;3.38;0.88;;;24.10;99.90;;;;;;5073130;28;20212;-80
2022/04/10 03:02:29;;;;;;;6.22;1.10;;;24.20;99.90;;;;;;5070739;28;20273;-79
2022/04/10 03:05:00;;;;;;;7.50;1.42;;;24.30;99.90;;;;;;5087566;28;20238;-79
2022/04/10 03:07:31;;;;;;;3.70;1.30;;;24.40;99.90;;;;;;5091156;28;20191;-79
2022/04/10 03:10:03;;;;;;;3.30;1.02;;;24.50;99.90;;;;;;5091046;28;20231;-79
2022/04/10 03:12:34;;;;;;;5.40;1.05;;;24.60;99.90;;;;;;5090498;28;20601;-79
2022/04/10 03:15:05;;;;;;;4.60;1.10;;;24.70;99.90;;;;;;5090393;28;20569;-79
2022/04/10 03:17:35;;;;;;;3.10;0.98;;;24.80;99.90;;;;;;5091052;28;20200;-79
2022/04/10 03:20:06;;;;;;;5.72;1.15;;;24.80;99.90;;;;;;5090939;28;20195;-79
2022/04/10 03:22:37;;;;;;;6.18;1.20;;;24.90;99.90;;;;;;5090875;28;20288;-79
2022/04/10 03:25:11;;;;;;;4.80;1.05;;;24.90;99.90;;;;;;5090484;28;20268;-79
2022/04/10 03:27:41;;;;;;;5.47;1.20;;;24.90;99.90;;;;;;5091036;28;20195;-79
2022/04/10 03:30:13;;;;;;;7.25;1.23;;;25.00;99.90;;;;;;5101057;28;20199;-80
2022/04/10 03:32:44;;;;;;;3.13;0.90;;;24.90;99.90;;;;;;5111073;28;20293;-79
2022/04/10 03:35:15;;;;;;;5.57;0.77;;;24.80;99.90;;;;;;5094817;28;20248;-80
2022/04/10 03:37:45;;;;;;;3.08;1.00;;;24.70;99.90;;;;;;5090511;28;20223;-80
2022/04/10 03:40:18;;;;;;;4.05;1.10;;;24.50;99.90;;;;;;5090815;28;20680;-80
2022/04/10 03:42:49;;;;;;;4.30;1.20;;;24.50;99.90;;;;;;5091354;28;20219;-79
2022/04/10 03:45:20;;;;;;;7.10;1.33;;;24.40;99.90;;;;;;5091291;28;20275;-80
2022/04/10 03:47:51;;;;;;;4.68;1.27;;;24.40;99.90;;;;;;5091339;28;20260;-80
2022/04/10 03:50:21;;;;;;;6.43;1.50;;;24.30;99.90;;;;;;5091114;28;20609;-80
2022/04/10 03:52:52;;;;;;;4.97;1.35;;;24.20;99.90;;;;;;5088270;28;20284;-79
2022/04/10 03:55:24;;;;;;;5.25;1.20;;;24.10;99.90;;;;;;5071053;28;20257;-79
2022/04/10 03:57:56;;;;;;;7.00;1.50;;;24.00;99.90;;;;;;5084057;28;20207;-82
2022/04/10 04:00:26;;;;;;;6.18;1.30;;;24.00;99.90;;;;;;5089100;28;20704;-83
2022/04/10 04:02:57;;;;;;;4.18;0.93;;;23.90;99.90;;;;;;5090819;28;20784;-83
2022/04/10 04:05:28;;;;;;;4.72;1.27;;;23.90;99.90;;;;;;5090238;28;20202;-81
2022/04/10 04:07:59;;;;;;;3.95;1.23;;;23.90;99.90;;;;;;5090294;28;20666;-81
2022/04/10 04:10:31;;;;;;;5.65;1.30;;;23.80;99.90;;;;;;5090554;28;20236;-81
2022/04/10 04:13:02;;;;;;;10.65;2.95;;;23.80;99.90;;;;;;5090583;28;20252;-81
2022/04/10 04:15:32;;;;;;;6.40;2.10;;;23.80;99.90;;;;;;5090917;28;20237;-83
2022/04/10 04:18:03;;;;;;;5.05;1.52;;;23.70;99.90;;;;;;5090578;28;20285;-82
2022/04/10 04:20:34;;;;;;;9.43;1.70;;;23.70;99.90;;;;;;5090607;28;20195;-84
2022/04/10 04:23:04;;;;;;;5.10;1.10;;;23.70;99.90;;;;;;5084967;28;20255;-83
2022/04/10 04:25:37;;;;;;;5.22;1.10;;;23.70;99.90;;;;;;5091232;28;20203;-88
2022/04/10 04:28:08;;;;;;;3.25;1.05;;;23.70;99.90;;;;;;5074355;28;20215;-83
2022/04/10 04:30:39;;;;;;;6.75;1.40;;;23.80;99.90;;;;;;5091964;28;20653;-83
2022/04/10 04:33:09;;;;;;;4.53;1.30;;;23.80;99.90;;;;;;5083909;28;20260;-80
2022/04/10 04:35:40;;;;;;;5.43;1.38;;;23.90;99.90;;;;;;5075271;28;20246;-80
2022/04/10 04:38:11;;;;;;;5.03;1.30;;;23.90;99.90;;;;;;5086880;28;20230;-80
2022/04/10 04:40:43;;;;;;;6.10;1.55;;;23.90;99.90;;;;;;5078629;28;20233;-80
2022/04/10 04:43:14;;;;;;;4.90;1.10;;;23.90;99.90;;;;;;5103810;28;20610;-79
2022/04/10 04:45:44;;;;;;;4.57;1.10;;;24.00;99.90;;;;;;5094117;28;20210;-79
2022/04/10 04:48:15;;;;;;;3.70;1.00;;;23.90;99.90;;;;;;5088126;28;20195;-79
2022/04/10 04:50:48;;;;;;;4.82;1.20;;;24.00;99.90;;;;;;5086673;28;20253;-89
2022/04/10 04:53:19;;;;;;;4.03;0.93;;;24.00;99.90;;;;;;5084566;28;20195;-80
2022/04/10 04:55:51;;;;;;;5.45;1.10;;;23.90;99.90;;;;;;5089826;28;20199;-79
2022/04/10 04:58:22;;;;;;;6.95;1.33;;;24.00;99.90;;;;;;5084412;28;20245;-79
2022/04/10 05:00:52;;;;;;;5.53;1.23;;;24.00;99.90;;;;;;5072220;28;20594;-78
2022/04/10 05:03:23;;;;;;;5.80;1.20;;;24.00;99.90;;;;;;5084219;28;20220;-78
2022/04/10 05:05:54;;;;;;;7.22;1.40;;;24.00;99.90;;;;;;5069640;28;20257;-78
2022/04/10 05:08:24;;;;;;;6.60;1.35;;;24.10;99.90;;;;;;5069789;28;20191;-78
2022/04/10 05:10:57;;;;;;;6.28;1.23;;;24.10;99.90;;;;;;5077821;28;20199;-82
2022/04/10 05:13:28;;;;;;;3.85;1.10;;;24.10;99.90;;;;;;5089885;28;20225;-82
2022/04/10 05:15:59;;;;;;;4.78;1.20;;;24.10;99.90;;;;;;5089085;28;20609;-82
2022/04/10 05:18:29;;;;;;;5.55;1.10;;;24.10;99.90;;;;;;5089423;28;20650;-82
2022/04/10 05:21:02;;;;;;;5.07;1.20;;;24.10;99.90;;;;;;5089186;28;20287;-77
2022/04/10 05:23:32;;;;;;;4.25;1.17;;;24.10;99.90;;;;;;5078704;28;20215;-77
2022/04/10 05:26:05;;;;;;;7.65;1.25;;;24.10;99.90;;;;;;5093186;28;20199;-78
2022/04/10 05:28:36;;;;;;;5.38;1.20;;;24.10;99.90;;;;;;5092677;28;20195;-79
2022/04/10 05:31:07;;;;;;;6.13;1.17;;;24.00;99.90;;;;;;5093707;28;20282;-77
2022/04/10 05:33:38;;;;;;;6.10;1.20;;;24.00;99.90;;;;;;5093483;28;20200;-77
2022/04/10 05:36:09;;;;;;;5.22;1.20;;;24.00;99.90;;;;;;5093085;28;20199;-77
2022/04/10 05:38:39;;;;;;;5.28;1.13;;;24.00;99.90;;;;;;5085821;28;20276;-78
2022/04/10 05:41:12;;;;;;;7.32;1.30;;;24.00;99.90;;;;;;5092640;28;20195;-78
2022/04/10 05:43:43;;;;;;;7.25;1.52;;;24.00;99.90;;;;;;5093129;28;20226;-79
2022/04/10 05:46:13;;;;;;;4.45;1.38;;;24.10;99.90;;;;;;5093108;28;20207;-77
2022/04/10 05:48:45;;;;;;;5.32;1.00;;;24.00;99.90;;;;;;5092769;28;20195;-77
2022/04/10 05:51:15;;;;;;;6.07;1.17;;;24.00;99.90;;;;;;5092956;28;20248;-78
2022/04/10 05:53:46;;;;;;;5.03;1.20;;;24.10;99.90;;;;;;5089676;28;20195;-77
2022/04/10 05:56:18;;;;;;;4.38;1.05;;;24.10;99.90;;;;;;5089545;28;20203;-78
2022/04/10 05:58:49;;;;;;;4.60;1.13;;;24.10;99.90;;;;;;5075089;28;20269;-79
2022/04/10 06:01:20;;;;;;;5.70;1.20;;;24.10;99.90;;;;;;5076803;28;20191;-78
2022/04/10 06:03:50;;;;;;;6.57;0.93;;;24.10;99.90;;;;;;5092941;28;20234;-79
2022/04/10 06:06:21;;;;;;;4.05;0.82;;;24.20;99.90;;;;;;5092968;28;20203;-78
2022/04/10 06:08:51;;;;;;;5.20;0.93;;;24.40;99.90;;;;;;5093094;28;20218;-78
2022/04/10 06:11:24;;;;;;;4.93;1.20;;;24.50;99.90;;;;;;5092587;28;20203;-78
2022/04/10 06:13:55;;;;;;;5.10;1.55;;;24.60;99.90;;;;;;5087636;28;20195;-78
2022/04/10 06:16:26;;;;;;;8.60;1.75;;;24.70;99.90;;;;;;5092391;28;20655;-78
2022/04/10 06:18:56;;;;;;;6.65;1.40;;;24.80;99.90;;;;;;5092018;28;20670;-78
2022/04/10 06:21:27;;;;;;;6.72;1.25;;;24.90;99.90;;;;;;5092381;28;20562;-79
2022/04/10 06:23:58;;;;;;;4.32;1.00;;;24.90;99.90;;;;;;5092566;28;20256;-79
2022/04/10 06:26:31;;;;;;;5.45;1.10;;;25.00;99.90;;;;;;5075675;28;20199;-79
2022/04/10 06:29:01;;;;;;;2.85;0.90;;;25.10;99.90;;;;;;5092412;28;20203;-83
2022/04/10 06:31:32;;;;;;;4.13;1.08;;;25.00;99.90;;;;;;5091852;28;20195;-81
2022/04/10 06:34:02;;;;;;;5.15;1.35;;;25.10;99.90;;;;;;5085922;28;20719;-77
2022/04/10 06:36:33;;;;;;;2.35;0.85;;;25.00;99.90;;;;;;5088390;28;20670;-77
2022/04/10 06:39:03;;;;;;;4.78;1.27;;;24.90;99.90;;;;;;5087717;28;20216;-77
2022/04/10 06:41:36;;;;;;;5.65;1.27;;;24.90;99.90;;;;;;5071830;28;20720;-77
2022/04/10 06:44:07;;;;;;;3.92;0.98;;;24.90;99.90;;;;;;5081023;28;20701;-77
2022/04/10 06:46:38;;;;;;;4.15;1.10;;;24.90;99.90;;;;;;5092026;28;20195;-76
2022/04/10 06:49:08;;;;;;;4.57;1.10;;;24.80;99.90;;;;;;5091634;28;20199;-79
2022/04/10 06:51:39;;;;;;;7.90;1.30;;;24.80;99.90;;;;;;5083846;28;20654;-75
2022/04/10 06:54:10;;;;;;;5.00;1.00;;;24.80;99.90;;;;;;5089235;28;20260;-76
2022/04/10 06:56:42;;;;;;;4.70;1.30;;;24.70;99.90;;;;;;5089145;28;20249;-76
2022/04/10 06:59:13;;;;;;;5.80;1.10;;;24.70;99.90;;;;;;5077742;28;20207;-75
2022/04/10 07:01:43;;;;;;;6.75;1.23;;;24.50;99.90;;;;;;5091690;28;20203;-75
2022/04/10 07:04:14;;;;;;;4.32;1.00;;;24.40;99.90;;;;;;5080449;28;20289;-73
2022/04/10 07:06:46;;;;;;;5.28;0.93;;;24.30;99.90;;;;;;5071709;28;20261;-75
2022/04/10 07:09:18;;;;;;;6.30;1.05;;;24.10;99.90;;;;;;5071819;28;20775;-77
2022/04/10 07:11:50;;;;;;;8.02;1.10;;;24.00;99.90;;;;;;5089974;28;20276;-80
2022/04/10 07:14:21;;;;;;;4.95;1.13;;;23.90;99.90;;;;;;5085161;28;20188;-79
2022/04/10 07:16:52;;;;;;;4.05;0.93;;;23.80;99.90;;;;;;5071793;28;20242;-79
2022/04/10 07:19:22;;;;;;;5.55;0.90;;;23.70;99.90;;;;;;5081625;28;20222;-79
2022/04/10 07:24:39;;;;;;;3.88;1.23;;;23.50;99.90;;;;;;5071168;28;20288;-79
2022/04/10 07:27:12;;;;;;;4.93;1.05;;;23.40;99.90;;;;;;5081619;28;20284;-79
2022/04/10 07:29:43;;;;;;;4.15;1.33;;;23.40;99.90;;;;;;5091007;28;20219;-80
2022/04/10 07:32:13;;;;;;;7.00;1.30;;;23.30;99.90;;;;;;5091143;28;20215;-79
2022/04/10 07:34:44;;;;;;;4.65;1.10;;;23.20;99.90;;;;;;5091290;28;20652;-80
2022/04/10 07:37:15;;;;;;;5.00;1.30;;;23.10;99.90;;;;;;5091232;28;20223;-80
2022/04/10 07:39:45;;;;;;;5.80;1.10;;;23.00;99.90;;;;;;5090806;28;20219;-79
2022/04/10 07:42:18;;;;;;;5.68;1.38;;;23.00;99.90;;;;;;5091254;28;20653;-78
2022/04/10 07:44:49;;;;;;;4.50;1.17;;;22.90;99.90;;;;;;5090319;28;20227;-79
2022/04/10 07:47:26;;;;;;;3.75;1.00;;;22.90;99.90;;;;;;5091025;28;20723;-80
2022/04/10 07:49:57;;;;;;;3.50;1.13;;;22.80;99.90;;;;;;5091265;28;20219;-80
2022/04/10 07:52:28;;;;;;;3.75;1.10;;;22.80;99.90;;;;;;5090797;28;20200;-80
2022/04/10 07:54:59;;;;;;;2.92;1.17;;;22.80;99.90;;;;;;5094405;28;20215;-82
2022/04/10 07:57:32;;;;;;;4.40;1.13;;;22.70;99.90;;;;;;5107452;28;20194;-80
2022/04/10 08:00:03;;;;;;;3.58;1.08;;;22.70;99.90;;;;;;5098867;28;20215;-80
2022/04/10 08:02:35;;;;;;;4.47;1.20;;;22.70;99.90;;;;;;5090457;28;20361;-79
2022/04/10 08:05:06;;;;;;;5.07;1.23;;;22.60;99.90;;;;;;5089181;28;20223;-80
2022/04/10 08:07:36;;;;;;;5.88;1.58;;;22.60;99.90;;;;;;5089289;28;20211;-82
2022/04/10 08:10:07;;;;;;;4.78;1.10;;;22.60;99.90;;;;;;5089106;28;20280;-81
2022/04/10 08:12:40;;;;;;;4.65;1.23;;;22.50;99.90;;;;;;5090017;28;20763;-82
2022/04/10 08:15:12;;;;;;;5.35;1.15;;;22.50;99.90;;;;;;5091838;28;20207;-87
2022/04/10 08:17:43;;;;;;;6.90;1.60;;;22.50;99.90;;;;;;5091128;28;20570;-85
2022/04/10 08:20:14;;;;;;;6.15;2.17;;;22.40;99.90;;;;;;5091414;28;20236;-85
2022/04/10 08:22:50;;;;;;;7.20;1.70;;;22.40;99.90;;;;;;5090866;28;20196;-84
2022/04/10 08:25:23;;;;;;;3.65;1.30;;;22.40;99.90;;;;;;5090545;28;20249;-84
2022/04/10 08:27:56;;;;;;;4.95;1.67;;;22.30;99.90;;;;;;5091294;28;20643;-84
2022/04/10 08:30:26;;;;;;;4.40;1.48;;;22.30;99.90;;;;;;5091292;28;20183;-83
2022/04/10 08:32:58;;;;;;;6.30;1.40;;;22.30;99.90;;;;;;5090698;28;20618;-84
2022/04/10 08:35:28;;;;;;;6.97;1.50;;;22.30;99.90;;;;;;5090556;28;20233;-84
2022/04/10 08:37:59;;;;;;;5.00;1.15;;;22.20;99.90;;;;;;5073649;28;20222;-84
2022/04/10 08:40:33;;;;;;;6.38;1.75;;;22.20;99.90;;;;;;5070025;28;20307;-84
2022/04/10 08:43:07;;;;;;;7.78;3.10;;;22.20;99.90;;;;;;5070680;28;20234;-84
2022/04/10 08:45:40;;;;;;;9.77;4.97;;;22.20;99.90;;;;;;5070324;28;20289;-84
2022/04/10 08:48:11;;;;;;;10.13;6.55;;;22.20;99.90;;;;;;5070434;28;20260;-84
2022/04/10 08:50:41;;;;;;;12.35;2.97;;;22.20;99.90;;;;;;5070402;28;20222;-84
2022/04/10 08:53:12;;;;;;;6.72;2.50;;;22.20;99.90;;;;;;5087981;28;20557;-83
2022/04/10 08:55:43;;;;;;;5.70;2.35;;;22.20;99.90;;;;;;5093324;28;20256;-84
2022/04/10 08:58:15;;;;;;;6.30;1.60;;;22.10;99.90;;;;;;5094673;28;20276;-84
2022/04/10 09:00:46;;;;;;;4.57;1.60;;;22.10;99.90;;;;;;5094672;28;20233;-84
2022/04/10 09:03:18;;;;;;;6.50;1.73;;;22.10;99.90;;;;;;5094752;28;20593;-84
2022/04/10 09:06:05;;;;;;;3.35;1.20;;;22.10;99.90;;;;;;5094239;28;20669;-83
2022/04/10 09:08:38;;;;;;;3.40;1.30;;;22.10;99.90;;;;;;5094241;28;20222;-84
2022/04/10 09:11:09;;;;;;;4.03;1.25;;;22.10;99.90;;;;;;5092734;28;20215;-84
2022/04/10 09:13:46;;;;;;;6.25;1.60;;;22.00;99.90;;;;;;5072907;28;20246;-83
2022/04/10 09:16:18;;;;;;;8.40;1.73;;;22.00;99.90;;;;;;5073117;28;20681;-84
2022/04/10 09:18:57;;;;;;;5.78;1.30;;;22.00;99.90;;;;;;5073877;28;20211;-84
2022/04/10 09:21:30;;;;;;;5.32;1.30;;;22.00;99.90;;;;;;5073980;28;20600;-84
2022/04/10 09:24:03;;;;;;;5.18;1.65;;;22.00;99.90;;;;;;5073699;28;20309;-83
2022/04/10 09:26:47;;;;;;;6.30;1.40;;;21.90;99.90;;;;;;5087488;28;20194;-84
2022/04/10 09:29:21;;;;;;;4.40;1.52;;;21.90;99.90;;;;;;5094455;28;20546;-83
2022/04/10 09:31:52;;;;;;;6.30;1.48;;;21.90;99.90;;;;;;5094446;28;20210;-84
2022/04/10 09:34:25;;;;;;;7.18;1.42;;;21.90;99.90;;;;;;5094928;28;20203;-84
2022/04/10 09:37:03;;;;;;;5.38;1.58;;;21.90;99.90;;;;;;5094354;28;20234;-84
2022/04/10 09:39:36;;;;;;;6.43;1.90;;;21.90;99.90;;;;;;5089206;28;20220;-83
2022/04/10 09:42:09;;;;;;;6.20;1.67;;;21.90;99.90;;;;;;5089345;28;20191;-83
2022/04/10 09:44:42;;;;;;;4.18;1.25;;;21.90;99.90;;;;;;5093689;28;20234;-83
2022/04/10 09:47:13;;;;;;;9.57;1.42;;;21.80;99.90;;;;;;5093791;28;20195;-83
2022/04/10 09:49:44;;;;;;;6.40;1.55;;;21.80;99.90;;;;;;5093802;28;20561;-83
2022/04/10 09:52:16;;;;;;;4.70;1.65;;;21.80;99.90;;;;;;5093635;28;20191;-83
2022/04/10 09:54:50;;;;;;;6.65;1.52;;;21.80;99.90;;;;;;5093402;28;20183;-83
2022/04/10 09:57:22;;;;;;;5.53;1.60;;;21.80;99.90;;;;;;5092617;28;20244;-83
2022/04/10 09:59:55;;;;;;;3.92;1.20;;;21.80;99.90;;;;;;5093081;28;20231;-83
2022/04/10 10:02:25;;;;;;;5.53;1.40;;;21.80;99.90;;;;;;5093694;28;20264;-83
2022/04/10 10:04:58;;;;;;;4.50;1.45;;;21.80;99.90;;;;;;5093641;28;20306;-84
2022/04/10 10:07:28;;;;;;;6.40;1.90;;;21.70;99.90;;;;;;5092548;28;20195;-82
2022/04/10 10:10:00;;;;;;;6.30;2.00;;;21.70;99.90;;;;;;5093137;28;20199;-83
2022/04/10 10:12:31;;;;;;;5.40;2.15;;;21.70;99.90;;;;;;5072885;28;20203;-83
2022/04/10 10:15:05;;;;;;;6.32;2.05;;;21.70;99.90;;;;;;5073036;28;20254;-83
2022/04/10 10:17:36;;;;;;;6.57;2.42;;;21.80;99.90;;;;;;5085110;28;20207;-80
2022/04/10 10:20:08;;;;;;;6.72;2.00;;;21.70;99.90;;;;;;5083274;28;20188;-82
2022/04/10 10:22:39;;;;;;;5.72;2.00;;;21.70;99.90;;;;;;5077981;28;20219;-81
2022/04/10 10:25:15;;;;;;;5.25;1.58;;;21.60;99.90;;;;;;5092832;28;20718;-84
2022/04/10 10:28:23;;;;;;;8.00;1.85;;;21.60;99.90;;;;;;5088141;28;20258;-79
2022/04/10 10:31:11;;;;;;;7.07;1.73;;;21.70;99.90;;;;;;5055435;28;20558;-80
2022/04/10 10:33:49;;;;;;;5.38;1.55;;;21.60;99.90;;;;;;5092721;28;20203;-80
2022/04/10 10:36:26;;;;;;;5.88;1.85;;;21.60;99.90;;;;;;5092528;28;20267;-80
2022/04/10 10:39:00;;;;;;;7.07;2.13;;;21.50;99.90;;;;;;5092935;28;20690;-80
2022/04/10 10:41:38;;;;;;;8.65;2.67;;;21.60;99.90;;;;;;5074601;28;20207;-80
2022/04/10 10:44:43;;;;;;;7.20;2.65;;;21.50;99.90;;;;;;5072100;28;20243;-80
2022/04/10 10:47:26;;;;;;;7.50;2.70;;;21.50;99.90;;;;;;5072140;28;20195;-81
2022/04/10 10:49:57;;;;;;;8.07;2.88;;;21.50;99.90;;;;;;5072865;28;20199;-81
2022/04/10 10:52:30;;;;;;;9.50;3.25;;;21.50;99.90;;;;;;5072433;28;20195;-81
2022/04/10 10:55:01;;;;;;;7.82;3.05;;;21.50;99.90;;;;;;5072160;28;20210;-82
2022/04/10 10:57:34;;;;;;;7.22;2.67;;;21.50;99.90;;;;;;5078687;28;20195;-80
2022/04/10 11:00:11;;;;;;;8.80;2.80;;;21.40;99.90;;;;;;5091840;28;20191;-79
2022/04/10 11:02:51;;;;;;;5.45;2.28;;;21.40;99.90;;;;;;5103476;28;20202;-81
2022/04/10 11:05:33;;;;;;;7.55;3.10;;;21.40;99.90;;;;;;5112226;27;20780;-81
2022/04/10 11:08:06;;;;;;;9.85;3.00;;;21.40;99.90;;;;;;5103027;28;20203;-82
2022/04/10 11:10:40;;;;;;;9.15;3.13;;;21.40;99.90;;;;;;5092110;28;20206;-81
2022/04/10 11:13:11;;;;;;;8.50;2.83;;;21.40;99.90;;;;;;5091810;28;20256;-80
2022/04/10 11:15:49;;;;;;;7.85;3.00;;;21.30;99.90;;;;;;5089877;28;20199;-80
2022/04/10 11:18:37;;;;;;;7.13;2.55;;;21.30;99.90;;;;;;5070666;28;20199;-81
2022/04/10 11:21:14;;;;;;;6.03;2.47;;;21.30;99.90;;;;;;5071488;28;20609;-81
2022/04/10 11:23:46;;;;;;;6.25;2.45;;;21.40;99.90;;;;;;5071303;28;20200;-80
2022/04/10 11:26:18;;;;;;;6.82;2.30;;;21.40;99.90;;;;;;5090383;28;20325;-80
2022/04/10 11:29:05;;;;;;;6.22;2.05;;;21.30;99.90;;;;;;5091239;28;20632;-80
2022/04/10 11:31:38;;;;;;;6.45;2.30;;;21.30;99.90;;;;;;5091319;28;20201;-82
2022/04/10 11:34:15;;;;;;;5.97;1.90;;;21.20;99.90;;;;;;5091339;28;20198;-80
2022/04/10 11:36:57;;;;;;;5.63;2.15;;;21.20;99.90;;;;;;5091054;28;20206;-81
2022/04/10 11:39:29;;;;;;;7.25;2.05;;;21.10;99.90;;;;;;5091428;28;20251;-80
2022/04/10 11:42:03;;;;;;;5.03;1.85;;;21.10;99.90;;;;;;5091458;28;20328;-82
2022/04/10 11:44:34;;;;;;;5.00;1.60;;;21.20;99.90;;;;;;5090674;28;20336;-81
2022/04/10 11:47:08;;;;;;;4.85;1.75;;;21.20;99.90;;;;;;5090969;28;20205;-81
2022/04/10 11:49:41;;;;;;;6.45;2.13;;;21.10;99.90;;;;;;5090452;28;20203;-81
2022/04/10 11:52:12;;;;;;;5.28;1.52;;;21.10;99.90;;;;;;5090731;28;20250;-80
2022/04/10 11:54:42;;;;;;;6.80;1.95;;;21.10;99.90;;;;;;5090914;28;20195;-81
2022/04/10 11:57:13;;;;;;;4.88;1.65;;;21.10;99.90;;;;;;5090696;28;20195;-81
2022/04/10 11:59:45;;;;;;;8.13;1.90;;;21.10;99.90;;;;;;5090491;28;20612;-80
2022/04/10 12:02:16;;;;;;;5.93;1.70;;;21.10;99.90;;;;;;5090583;28;20183;-81
2022/04/10 12:04:50;;;;;;;9.63;1.90;;;21.10;99.90;;;;;;5090543;28;20203;-81
2022/04/10 12:07:22;;;;;;;11.07;2.28;;;21.10;99.90;;;;;;5090695;28;20195;-81
2022/04/10 12:09:54;;;;;;;4.88;1.80;;;21.10;99.90;;;;;;5070515;28;20332;-81
2022/04/10 12:12:36;;;;;;;8.88;2.30;;;21.10;99.90;;;;;;5070270;28;20253;-81
2022/04/10 12:15:17;;;;;;;5.93;1.90;;;21.10;99.90;;;;;;5088865;28;20205;-80
2022/04/10 12:17:47;;;;;;;7.38;2.00;;;21.10;99.90;;;;;;5090765;28;20259;-80
2022/04/10 12:20:26;;;;;;;7.32;1.92;;;21.00;99.90;;;;;;5090476;28;20692;-79
2022/04/10 12:22:57;;;;;;;6.35;1.70;;;21.00;99.90;;;;;;5090657;28;20218;-80
2022/04/10 12:25:28;;;;;;;6.53;2.15;;;21.00;99.90;;;;;;5090639;28;20214;-79
2022/04/10 12:27:59;;;;;;;6.03;1.98;;;21.00;99.90;;;;;;5090348;28;20206;-78
2022/04/10 12:30:31;;;;;;;4.72;2.13;;;21.00;99.90;;;;;;5079489;28;20196;-81
2022/04/10 12:33:01;;;;;;;5.35;1.83;;;21.00;99.90;;;;;;5081036;28;20195;-80
2022/04/10 12:35:39;;;;;;;5.43;1.75;;;20.90;99.90;;;;;;5090242;28;20203;-81
2022/04/10 12:38:10;;;;;;;4.57;1.98;;;20.90;99.90;;;;;;5089923;28;20244;-80
2022/04/10 12:40:43;;;;;;;7.55;2.17;;;20.90;99.90;;;;;;5090296;28;20202;-80
2022/04/10 12:43:14;;;;;;;6.47;2.00;;;20.90;99.90;;;;;;5090093;28;20199;-81
2022/04/10 12:45:46;;;;;;;5.70;1.88;;;20.90;99.90;;;;;;5085364;28;20216;-81
2022/04/10 12:48:26;;;;;;;5.80;1.88;;;20.80;99.90;;;;;;5070788;28;20200;-85
2022/04/10 12:51:20;;;;;;;4.45;1.92;;;20.80;99.90;;;;;;5088968;28;20203;-80
2022/04/10 12:53:51;;;;;;;6.60;2.42;;;20.80;99.90;;;;;;5090648;28;20658;-81
2022/04/10 12:56:23;;;;;;;7.82;2.05;;;20.80;99.90;;;;;;5090599;28;20234;-82
2022/04/10 12:58:54;;;;;;;5.90;2.05;;;20.90;99.90;;;;;;5092105;28;20195;-81
2022/04/10 13:01:29;;;;;;;7.30;1.80;;;20.80;99.90;;;;;;5090720;28;20191;-82
2022/04/10 13:04:00;;;;;;;6.47;1.80;;;20.80;99.90;;;;;;5091200;28;20229;-81
2022/04/10 13:06:53;;;;;;;5.57;1.60;;;20.80;99.90;;;;;;5090220;28;20280;-80
2022/04/10 13:09:23;;;;;;;3.78;1.67;;;20.80;99.90;;;;;;5091807;28;20255;-80
2022/04/10 13:11:54;;;;;;;6.20;1.98;;;20.70;99.90;;;;;;5090857;28;20241;-81
2022/04/10 13:14:26;;;;;;;6.18;1.70;;;20.70;99.90;;;;;;5080802;28;20199;-85
2022/04/10 13:17:06;;;;;;;7.90;1.98;;;20.70;99.90;;;;;;5091005;28;20191;-82